12:54
Airports
History
Links
Donate
Help keep this website running!
PayPal
Bitcoin
This page is community maintained. The information is intended for PC simulator navigation or reference.
Always use approved charts for navigation.
RJA2
Ohotone
Ohotone (RJA2)
Sakae-machi, Chiba Prefecture, Japan (270)
(C)
Lat/Lng:35° 51' 20.01" N / 140° 14' 40.01" E
35.855557 / 140.244446
Elevation:65'ft / 20mMSL
ID / ICAO:RJA2
Runways:1
Longest:07-25
Asphalt 596m / 1,954ft
Controlled:Yes
Nearby Weather12:30 GMT 2017-12-18
Nearby weather at RJAA, NARITA INTL located 9.5 nautical miles from RJA2
Altimeter: 30.15
Visibility: 6.2 statute miles
Wind: 0 knots (from 000°)
Temp: -1°c / 30°f
Humidity: 86.2%

METAR: RJAA 181230Z 00000KT 9999 FEW030 SCT/// M01/M03 Q1021 NOSIG RMK 1CU030 A3016

(Powered by phpweather)
Nearby VORs <50NM
Nearby NDBs
Runway 07 / 25
Dimensions:595.5 x 20.1m 1954' x 66'ft
Surface:Asphalt
Runway 07 [A]Runway 25 [B]
Heading:066°TH 246°TH
Lat:
Lng:
35° 51' 16.21"N
140° 14' 28.97"E
35° 51' 23.8"N
140° 14' 51.04"E
User Notes and Comments
35° 51' 20.01" N / 140° 14' 40.01" E
Distance To
Airport ID:
Nearby Airports
(C) Ryugasaki 3.3 NM
RJA3 N
(C) NARITA INTL 9.5 NM
RJAA ( WX ) SE 126°
(C) Ami 11.5 NM
RJA1 N
(C) Kasumigaura AB 12.4 NM
RJAK ( WX ) NNW 347°
(C) SHIMOFUSA 13.6 NM
RJTL ( WX ) WSW 253°
(C) HYAKURI 24.4 NM
RJAH ( WX ) NNE 23°
(C) Tokyo Haneda Intl 33.2 NM
RJTT ( WX ) SW 229°
VFR Chart
Flight Planning at SkyVector.com